sensor_id;sensor_type;location;lat;lon;timestamp;pressure;altitude;pressure_sealevel;temperature;humidity
52653;BME280;39353;42.864;12.014;2024-01-30T00:00:49;99231.93;;;21.14;42.88
52653;BME280;39353;42.864;12.014;2024-01-30T00:03:41;99229.33;;;21.11;42.99
52653;BME280;39353;42.864;12.014;2024-01-30T00:06:12;99228.87;;;21.09;43.00
52653;BME280;39353;42.864;12.014;2024-01-30T00:08:44;99232.81;;;21.08;43.08
52653;BME280;39353;42.864;12.014;2024-01-30T00:11:16;99230.68;;;21.08;43.04
52653;BME280;39353;42.864;12.014;2024-01-30T00:13:48;99229.65;;;21.06;43.06
52653;BME280;39353;42.864;12.014;2024-01-30T00:16:26;99229.08;;;21.03;43.23
52653;BME280;39353;42.864;12.014;2024-01-30T00:18:57;99233.56;;;21.00;43.16
52653;BME280;39353;42.864;12.014;2024-01-30T00:21:30;99235.14;;;20.99;43.21
52653;BME280;39353;42.864;12.014;2024-01-30T00:24:02;99231.48;;;20.96;43.21
52653;BME280;39353;42.864;12.014;2024-01-30T00:26:34;99230.36;;;20.95;43.12
52653;BME280;39353;42.864;12.014;2024-01-30T00:29:06;99226.81;;;20.93;43.26
52653;BME280;39353;42.864;12.014;2024-01-30T00:31:39;99228.38;;;20.93;43.25
52653;BME280;39353;42.864;12.014;2024-01-30T00:34:11;99225.40;;;20.91;43.30
52653;BME280;39353;42.864;12.014;2024-01-30T00:36:43;99220.80;;;20.90;43.42
52653;BME280;39353;42.864;12.014;2024-01-30T00:39:15;99225.25;;;20.87;43.29
52653;BME280;39353;42.864;12.014;2024-01-30T00:41:47;99222.41;;;20.86;43.35
52653;BME280;39353;42.864;12.014;2024-01-30T00:44:19;99221.54;;;20.82;43.35
52653;BME280;39353;42.864;12.014;2024-01-30T00:46:51;99216.63;;;20.79;43.42
52653;BME280;39353;42.864;12.014;2024-01-30T00:49:22;99214.80;;;20.76;43.38
52653;BME280;39353;42.864;12.014;2024-01-30T00:51:53;99219.22;;;20.72;43.43
52653;BME280;39353;42.864;12.014;2024-01-30T00:54:25;99221.19;;;20.70;43.61
52653;BME280;39353;42.864;12.014;2024-01-30T00:56:56;99218.37;;;20.67;43.58
52653;BME280;39353;42.864;12.014;2024-01-30T00:59:27;99217.84;;;20.65;43.73
52653;BME280;39353;42.864;12.014;2024-01-30T01:01:59;99216.40;;;20.62;43.67
52653;BME280;39353;42.864;12.014;2024-01-30T01:04:30;99217.42;;;20.58;43.83
52653;BME280;39353;42.864;12.014;2024-01-30T01:07:01;99215.27;;;20.56;43.85
52653;BME280;39353;42.864;12.014;2024-01-30T01:09:33;99216.36;;;20.53;43.81
52653;BME280;39353;42.864;12.014;2024-01-30T01:12:05;99216.43;;;20.51;43.90
52653;BME280;39353;42.864;12.014;2024-01-30T01:14:37;99214.22;;;20.48;43.86
52653;BME280;39353;42.864;12.014;2024-01-30T01:17:08;99214.89;;;20.46;44.08
52653;BME280;39353;42.864;12.014;2024-01-30T01:19:40;99214.59;;;20.43;43.91
52653;BME280;39353;42.864;12.014;2024-01-30T01:22:12;99210.02;;;20.42;44.05
52653;BME280;39353;42.864;12.014;2024-01-30T01:24:46;99202.84;;;20.38;44.20
52653;BME280;39353;42.864;12.014;2024-01-30T01:27:17;99204.23;;;20.36;44.08
52653;BME280;39353;42.864;12.014;2024-01-30T01:29:49;99203.28;;;20.33;44.14
52653;BME280;39353;42.864;12.014;2024-01-30T01:32:21;99200.23;;;20.31;44.30
52653;BME280;39353;42.864;12.014;2024-01-30T01:34:52;99199.36;;;20.28;44.13
52653;BME280;39353;42.864;12.014;2024-01-30T01:37:24;99196.98;;;20.26;44.23
52653;BME280;39353;42.864;12.014;2024-01-30T01:39:56;99194.16;;;20.24;44.14
52653;BME280;39353;42.864;12.014;2024-01-30T01:42:28;99188.80;;;20.22;44.29
52653;BME280;39353;42.864;12.014;2024-01-30T01:45:00;99189.17;;;20.20;44.14
52653;BME280;39353;42.864;12.014;2024-01-30T01:47:32;99187.61;;;20.19;44.25
52653;BME280;39353;42.864;12.014;2024-01-30T01:50:04;99189.76;;;20.18;44.24
52653;BME280;39353;42.864;12.014;2024-01-30T01:52:35;99191.27;;;20.16;44.38
52653;BME280;39353;42.864;12.014;2024-01-30T01:55:08;99191.62;;;20.15;44.36
52653;BME280;39353;42.864;12.014;2024-01-30T01:57:42;99193.98;;;20.13;44.30
52653;BME280;39353;42.864;12.014;2024-01-30T02:00:15;99193.55;;;20.11;44.49
52653;BME280;39353;42.864;12.014;2024-01-30T02:02:48;99192.34;;;20.08;44.49
52653;BME280;39353;42.864;12.014;2024-01-30T02:05:21;99194.66;;;20.07;44.48
52653;BME280;39353;42.864;12.014;2024-01-30T02:07:52;99192.70;;;20.05;44.31
52653;BME280;39353;42.864;12.014;2024-01-30T02:10:24;99191.55;;;20.04;44.37
52653;BME280;39353;42.864;12.014;2024-01-30T02:12:55;99192.23;;;20.03;44.37
52653;BME280;39353;42.864;12.014;2024-01-30T02:15:26;99189.73;;;20.01;44.38
52653;BME280;39353;42.864;12.014;2024-01-30T02:17:59;99186.77;;;20.00;44.51
52653;BME280;39353;42.864;12.014;2024-01-30T02:20:31;99181.81;;;19.99;44.59
52653;BME280;39353;42.864;12.014;2024-01-30T02:23:06;99185.13;;;19.99;44.50
52653;BME280;39353;42.864;12.014;2024-01-30T02:25:41;99182.24;;;19.97;44.48
52653;BME280;39353;42.864;12.014;2024-01-30T02:28:14;99180.07;;;19.95;44.45
52653;BME280;39353;42.864;12.014;2024-01-30T02:30:46;99179.45;;;19.94;44.49
52653;BME280;39353;42.864;12.014;2024-01-30T02:33:17;99183.37;;;19.95;44.43
52653;BME280;39353;42.864;12.014;2024-01-30T02:35:49;99181.15;;;19.95;44.38
52653;BME280;39353;42.864;12.014;2024-01-30T02:38:21;99178.78;;;19.92;44.39
52653;BME280;39353;42.864;12.014;2024-01-30T02:40:54;99176.15;;;19.93;44.41
52653;BME280;39353;42.864;12.014;2024-01-30T02:43:27;99175.00;;;19.92;44.44
52653;BME280;39353;42.864;12.014;2024-01-30T02:46:01;99177.67;;;19.91;44.41
52653;BME280;39353;42.864;12.014;2024-01-30T02:48:34;99177.77;;;19.90;44.42
52653;BME280;39353;42.864;12.014;2024-01-30T02:51:06;99180.50;;;19.88;44.39
52653;BME280;39353;42.864;12.014;2024-01-30T02:53:38;99180.59;;;19.87;44.31
52653;BME280;39353;42.864;12.014;2024-01-30T02:56:10;99183.45;;;19.86;44.27
52653;BME280;39353;42.864;12.014;2024-01-30T02:58:43;99186.35;;;19.85;44.54
52653;BME280;39353;42.864;12.014;2024-01-30T03:01:15;99189.09;;;19.83;44.50
52653;BME280;39353;42.864;12.014;2024-01-30T03:03:46;99193.34;;;19.82;44.66
52653;BME280;39353;42.864;12.014;2024-01-30T03:06:17;99192.61;;;19.80;44.59
52653;BME280;39353;42.864;12.014;2024-01-30T03:08:50;99193.49;;;19.79;44.60
52653;BME280;39353;42.864;12.014;2024-01-30T03:11:21;99190.75;;;19.78;44.51
52653;BME280;39353;42.864;12.014;2024-01-30T03:13:52;99193.26;;;19.76;44.74
52653;BME280;39353;42.864;12.014;2024-01-30T03:16:24;99196.13;;;19.75;44.61
52653;BME280;39353;42.864;12.014;2024-01-30T03:18:56;99193.40;;;19.73;44.70
52653;BME280;39353;42.864;12.014;2024-01-30T03:21:27;99190.05;;;19.73;44.71
52653;BME280;39353;42.864;12.014;2024-01-30T03:23:59;99191.59;;;19.72;44.67
52653;BME280;39353;42.864;12.014;2024-01-30T03:26:30;99191.57;;;19.71;44.91
52653;BME280;39353;42.864;12.014;2024-01-30T03:29:02;99194.16;;;19.70;44.80
52653;BME280;39353;42.864;12.014;2024-01-30T03:31:34;99190.20;;;19.70;44.95
52653;BME280;39353;42.864;12.014;2024-01-30T03:34:05;99188.58;;;19.70;44.77
52653;BME280;39353;42.864;12.014;2024-01-30T03:36:37;99186.45;;;19.68;44.78
52653;BME280;39353;42.864;12.014;2024-01-30T03:39:08;99184.09;;;19.66;44.74
52653;BME280;39353;42.864;12.014;2024-01-30T03:41:43;99183.17;;;19.66;44.85
52653;BME280;39353;42.864;12.014;2024-01-30T03:44:15;99189.10;;;19.65;44.80
52653;BME280;39353;42.864;12.014;2024-01-30T03:46:47;99185.02;;;19.63;44.99
52653;BME280;39353;42.864;12.014;2024-01-30T03:49:18;99185.34;;;19.62;44.91
52653;BME280;39353;42.864;12.014;2024-01-30T03:51:50;99183.54;;;19.60;44.97
52653;BME280;39353;42.864;12.014;2024-01-30T03:54:21;99180.08;;;19.58;44.97
52653;BME280;39353;42.864;12.014;2024-01-30T03:56:53;99188.69;;;19.58;44.92
52653;BME280;39353;42.864;12.014;2024-01-30T03:59:24;99187.98;;;19.56;45.02
52653;BME280;39353;42.864;12.014;2024-01-30T04:01:56;99187.50;;;19.55;44.89
52653;BME280;39353;42.864;12.014;2024-01-30T04:04:27;99185.87;;;19.54;44.96
52653;BME280;39353;42.864;12.014;2024-01-30T04:06:59;99187.92;;;19.53;45.12
52653;BME280;39353;42.864;12.014;2024-01-30T04:09:30;99185.51;;;19.52;44.96
52653;BME280;39353;42.864;12.014;2024-01-30T04:12:02;99187.12;;;19.51;44.98
52653;BME280;39353;42.864;12.014;2024-01-30T04:14:34;99186.06;;;19.50;44.94
52653;BME280;39353;42.864;12.014;2024-01-30T04:17:05;99185.85;;;19.48;44.92
52653;BME280;39353;42.864;12.014;2024-01-30T04:19:38;99185.02;;;19.48;44.99
52653;BME280;39353;42.864;12.014;2024-01-30T04:22:10;99183.58;;;19.48;45.03
52653;BME280;39353;42.864;12.014;2024-01-30T04:24:41;99183.35;;;19.47;44.98
52653;BME280;39353;42.864;12.014;2024-01-30T04:27:14;99180.60;;;19.46;45.04
52653;BME280;39353;42.864;12.014;2024-01-30T04:29:51;99175.38;;;19.45;44.97
52653;BME280;39353;42.864;12.014;2024-01-30T04:32:25;99180.41;;;19.44;44.86
52653;BME280;39353;42.864;12.014;2024-01-30T04:34:57;99180.31;;;19.43;44.87
52653;BME280;39353;42.864;12.014;2024-01-30T04:37:29;99179.13;;;19.43;44.90
52653;BME280;39353;42.864;12.014;2024-01-30T04:40:00;99181.38;;;19.42;44.86
52653;BME280;39353;42.864;12.014;2024-01-30T04:42:32;99176.37;;;19.41;44.80
52653;BME280;39353;42.864;12.014;2024-01-30T04:45:04;99174.27;;;19.41;44.76
52653;BME280;39353;42.864;12.014;2024-01-30T04:47:36;99174.40;;;19.39;44.80
52653;BME280;39353;42.864;12.014;2024-01-30T04:50:10;99176.13;;;19.39;44.74
52653;BME280;39353;42.864;12.014;2024-01-30T04:52:41;99176.48;;;19.39;44.87
52653;BME280;39353;42.864;12.014;2024-01-30T04:55:13;99177.51;;;19.38;44.80
52653;BME280;39353;42.864;12.014;2024-01-30T04:57:46;99175.55;;;19.37;45.00
52653;BME280;39353;42.864;12.014;2024-01-30T05:00:18;99175.87;;;19.36;45.00
52653;BME280;39353;42.864;12.014;2024-01-30T05:02:50;99180.67;;;19.36;45.06
52653;BME280;39353;42.864;12.014;2024-01-30T05:05:21;99181.86;;;19.34;45.19
52653;BME280;39353;42.864;12.014;2024-01-30T05:07:53;99187.45;;;19.33;45.03
52653;BME280;39353;42.864;12.014;2024-01-30T05:10:25;99184.84;;;19.32;45.16
52653;BME280;39353;42.864;12.014;2024-01-30T05:12:59;99188.91;;;19.32;45.31
52653;BME280;39353;42.864;12.014;2024-01-30T05:15:31;99191.06;;;19.30;45.32
52653;BME280;39353;42.864;12.014;2024-01-30T05:18:03;99193.59;;;19.29;45.29
52653;BME280;39353;42.864;12.014;2024-01-30T05:20:34;99195.46;;;19.28;45.21
52653;BME280;39353;42.864;12.014;2024-01-30T05:23:06;99198.45;;;19.27;45.26
52653;BME280;39353;42.864;12.014;2024-01-30T05:25:38;99195.67;;;19.26;45.16
52653;BME280;39353;42.864;12.014;2024-01-30T05:28:10;99192.44;;;19.25;45.08
52653;BME280;39353;42.864;12.014;2024-01-30T05:30:41;99199.25;;;19.25;45.21
52653;BME280;39353;42.864;12.014;2024-01-30T05:33:13;99199.69;;;19.25;45.08
52653;BME280;39353;42.864;12.014;2024-01-30T05:35:44;99199.89;;;19.24;45.11
52653;BME280;39353;42.864;12.014;2024-01-30T05:38:15;99201.60;;;19.22;45.12
52653;BME280;39353;42.864;12.014;2024-01-30T05:40:47;99206.30;;;19.22;45.31
52653;BME280;39353;42.864;12.014;2024-01-30T05:43:18;99206.08;;;19.21;45.33
52653;BME280;39353;42.864;12.014;2024-01-30T05:45:49;99203.95;;;19.19;45.37
52653;BME280;39353;42.864;12.014;2024-01-30T05:48:21;99206.84;;;19.19;45.57
52653;BME280;39353;42.864;12.014;2024-01-30T05:50:53;99207.64;;;19.18;45.51
52653;BME280;39353;42.864;12.014;2024-01-30T05:53:24;99207.56;;;19.17;45.50
52653;BME280;39353;42.864;12.014;2024-01-30T05:55:56;99210.22;;;19.18;45.60
52653;BME280;39353;42.864;12.014;2024-01-30T05:58:27;99209.61;;;19.18;45.57
52653;BME280;39353;42.864;12.014;2024-01-30T06:00:58;99209.43;;;19.18;45.41
52653;BME280;39353;42.864;12.014;2024-01-30T06:03:30;99212.64;;;19.19;45.43
52653;BME280;39353;42.864;12.014;2024-01-30T06:06:02;99210.45;;;19.19;45.36
52653;BME280;39353;42.864;12.014;2024-01-30T06:08:33;99212.58;;;19.18;45.48
52653;BME280;39353;42.864;12.014;2024-01-30T06:11:05;99208.39;;;19.18;45.61
52653;BME280;39353;42.864;12.014;2024-01-30T06:13:36;99208.80;;;19.20;45.80
52653;BME280;39353;42.864;12.014;2024-01-30T06:16:12;99209.21;;;19.21;45.79
52653;BME280;39353;42.864;12.014;2024-01-30T06:18:46;99207.84;;;19.20;46.01
52653;BME280;39353;42.864;12.014;2024-01-30T06:21:21;99208.48;;;19.19;45.99
52653;BME280;39353;42.864;12.014;2024-01-30T06:23:59;99212.34;;;19.18;45.98
52653;BME280;39353;42.864;12.014;2024-01-30T06:26:32;99206.23;;;19.18;46.12
52653;BME280;39353;42.864;12.014;2024-01-30T06:29:04;99208.63;;;19.17;45.65
52653;BME280;39353;42.864;12.014;2024-01-30T06:31:41;99207.14;;;19.16;45.16
52653;BME280;39353;42.864;12.014;2024-01-30T06:34:12;99210.19;;;19.16;45.45
52653;BME280;39353;42.864;12.014;2024-01-30T06:36:44;99212.92;;;19.15;45.40
52653;BME280;39353;42.864;12.014;2024-01-30T06:39:15;99211.41;;;19.14;45.03
52653;BME280;39353;42.864;12.014;2024-01-30T06:41:47;99215.87;;;19.11;44.21
52653;BME280;39353;42.864;12.014;2024-01-30T06:44:19;99209.70;;;18.93;39.44
52653;BME280;39353;42.864;12.014;2024-01-30T06:46:50;99213.70;;;18.76;40.39
52653;BME280;39353;42.864;12.014;2024-01-30T06:49:22;99219.28;;;18.73;41.18
52653;BME280;39353;42.864;12.014;2024-01-30T06:51:55;99218.05;;;18.75;41.60
52653;BME280;39353;42.864;12.014;2024-01-30T06:54:27;99225.20;;;18.81;41.96
52653;BME280;39353;42.864;12.014;2024-01-30T06:56:58;99231.04;;;18.87;42.33
52653;BME280;39353;42.864;12.014;2024-01-30T06:59:31;99228.87;;;18.88;41.72
52653;BME280;39353;42.864;12.014;2024-01-30T07:02:03;99230.46;;;18.89;41.46
52653;BME280;39353;42.864;12.014;2024-01-30T07:04:35;99230.46;;;18.90;42.06
52653;BME280;39353;42.864;12.014;2024-01-30T07:07:09;99228.27;;;18.96;42.40
52653;BME280;39353;42.864;12.014;2024-01-30T07:09:46;99231.29;;;19.03;42.71
52653;BME280;39353;42.864;12.014;2024-01-30T07:12:22;99232.74;;;19.11;43.17
52653;BME280;39353;42.864;12.014;2024-01-30T07:14:54;99232.02;;;19.14;43.28
52653;BME280;39353;42.864;12.014;2024-01-30T07:17:26;99237.77;;;19.20;43.48
52653;BME280;39353;42.864;12.014;2024-01-30T07:19:59;99240.36;;;19.18;42.93
52653;BME280;39353;42.864;12.014;2024-01-30T07:22:32;99242.81;;;19.17;42.96
52653;BME280;39353;42.864;12.014;2024-01-30T07:25:06;99246.95;;;19.17;43.17
52653;BME280;39353;42.864;12.014;2024-01-30T07:27:37;99248.35;;;19.16;42.45
52653;BME280;39353;42.864;12.014;2024-01-30T07:30:10;99246.87;;;19.00;39.74
52653;BME280;39353;42.864;12.014;2024-01-30T07:32:41;99246.94;;;18.94;40.77
52653;BME280;39353;42.864;12.014;2024-01-30T07:35:13;99251.20;;;18.92;41.09
52653;BME280;39353;42.864;12.014;2024-01-30T07:37:44;99251.95;;;18.90;41.03
52653;BME280;39353;42.864;12.014;2024-01-30T07:40:16;99255.21;;;18.88;40.76
52653;BME280;39353;42.864;12.014;2024-01-30T07:42:50;99253.68;;;18.89;40.64
52653;BME280;39353;42.864;12.014;2024-01-30T07:45:22;99252.33;;;18.88;40.36
52653;BME280;39353;42.864;12.014;2024-01-30T07:47:54;99254.15;;;18.88;39.84
52653;BME280;39353;42.864;12.014;2024-01-30T07:50:25;99258.78;;;18.88;39.85
52653;BME280;39353;42.864;12.014;2024-01-30T07:52:59;99257.21;;;18.90;39.85
52653;BME280;39353;42.864;12.014;2024-01-30T07:55:30;99260.26;;;18.95;40.04
52653;BME280;39353;42.864;12.014;2024-01-30T07:58:03;99264.00;;;18.98;40.28
52653;BME280;39353;42.864;12.014;2024-01-30T08:00:34;99266.66;;;19.00;40.59
52653;BME280;39353;42.864;12.014;2024-01-30T08:03:06;99268.70;;;19.01;40.77
52653;BME280;39353;42.864;12.014;2024-01-30T08:05:38;99270.20;;;19.02;41.25
52653;BME280;39353;42.864;12.014;2024-01-30T08:08:13;99266.16;;;19.02;41.33
52653;BME280;39353;42.864;12.014;2024-01-30T08:10:45;99270.40;;;19.04;41.59
52653;BME280;39353;42.864;12.014;2024-01-30T08:13:16;99269.95;;;19.06;41.85
52653;BME280;39353;42.864;12.014;2024-01-30T08:15:48;99273.59;;;19.09;41.85
52653;BME280;39353;42.864;12.014;2024-01-30T08:18:20;99278.95;;;19.15;41.86
52653;BME280;39353;42.864;12.014;2024-01-30T08:20:51;99276.31;;;19.17;42.02
52653;BME280;39353;42.864;12.014;2024-01-30T08:23:23;99277.18;;;19.21;41.90
52653;BME280;39353;42.864;12.014;2024-01-30T08:25:55;99274.52;;;19.22;41.91
52653;BME280;39353;42.864;12.014;2024-01-30T08:28:26;99278.23;;;19.23;41.99
52653;BME280;39353;42.864;12.014;2024-01-30T08:30:58;99275.48;;;19.25;41.98
52653;BME280;39353;42.864;12.014;2024-01-30T08:33:30;99274.25;;;19.28;42.01
52653;BME280;39353;42.864;12.014;2024-01-30T08:36:02;99274.27;;;19.32;41.96
52653;BME280;39353;42.864;12.014;2024-01-30T08:38:36;99278.55;;;19.35;41.75
52653;BME280;39353;42.864;12.014;2024-01-30T08:41:10;99282.13;;;19.34;41.97
52653;BME280;39353;42.864;12.014;2024-01-30T08:43:42;99275.50;;;19.33;41.98
52653;BME280;39353;42.864;12.014;2024-01-30T08:46:16;99278.96;;;19.36;42.14
52653;BME280;39353;42.864;12.014;2024-01-30T08:48:49;99279.91;;;19.36;41.53
52653;BME280;39353;42.864;12.014;2024-01-30T08:51:20;99276.85;;;19.35;41.45
52653;BME280;39353;42.864;12.014;2024-01-30T08:53:52;99278.06;;;19.21;38.29
52653;BME280;39353;42.864;12.014;2024-01-30T08:56:24;99276.23;;;19.10;39.65
52653;BME280;39353;42.864;12.014;2024-01-30T08:58:55;99277.91;;;19.08;40.84
52653;BME280;39353;42.864;12.014;2024-01-30T09:01:27;99280.02;;;19.08;40.90
52653;BME280;39353;42.864;12.014;2024-01-30T09:03:59;99281.25;;;19.09;41.17
52653;BME280;39353;42.864;12.014;2024-01-30T09:06:31;99281.68;;;19.10;41.42
52653;BME280;39353;42.864;12.014;2024-01-30T09:09:02;99284.84;;;19.09;41.59
52653;BME280;39353;42.864;12.014;2024-01-30T09:11:36;99286.79;;;19.08;41.73
52653;BME280;39353;42.864;12.014;2024-01-30T09:14:08;99291.92;;;19.07;41.82
52653;BME280;39353;42.864;12.014;2024-01-30T09:16:39;99291.23;;;19.07;42.11
52653;BME280;39353;42.864;12.014;2024-01-30T09:19:11;99294.89;;;19.07;42.07
52653;BME280;39353;42.864;12.014;2024-01-30T09:21:43;99294.17;;;19.07;42.33
52653;BME280;39353;42.864;12.014;2024-01-30T09:24:14;99296.95;;;19.06;42.28
52653;BME280;39353;42.864;12.014;2024-01-30T09:26:46;99296.31;;;19.06;42.41
52653;BME280;39353;42.864;12.014;2024-01-30T09:29:17;99298.19;;;19.05;42.53
52653;BME280;39353;42.864;12.014;2024-01-30T09:31:49;99298.52;;;19.05;42.45
52653;BME280;39353;42.864;12.014;2024-01-30T09:34:21;99299.20;;;19.04;42.70
52653;BME280;39353;42.864;12.014;2024-01-30T09:36:52;99301.02;;;19.04;42.56
52653;BME280;39353;42.864;12.014;2024-01-30T09:39:24;99297.54;;;19.02;42.84
52653;BME280;39353;42.864;12.014;2024-01-30T09:42:02;99300.48;;;19.02;42.88
52653;BME280;39353;42.864;12.014;2024-01-30T09:44:37;99298.11;;;19.01;42.87
52653;BME280;39353;42.864;12.014;2024-01-30T09:47:12;99303.45;;;19.01;42.88
52653;BME280;39353;42.864;12.014;2024-01-30T09:49:44;99303.48;;;19.01;42.96
52653;BME280;39353;42.864;12.014;2024-01-30T09:52:17;99299.10;;;19.00;42.95
52653;BME280;39353;42.864;12.014;2024-01-30T09:54:51;99304.30;;;18.99;43.09
52653;BME280;39353;42.864;12.014;2024-01-30T09:57:23;99302.30;;;18.99;43.12
52653;BME280;39353;42.864;12.014;2024-01-30T09:59:58;99303.04;;;18.99;43.22
52653;BME280;39353;42.864;12.014;2024-01-30T10:02:30;99302.84;;;18.99;43.24
52653;BME280;39353;42.864;12.014;2024-01-30T10:05:03;99300.49;;;18.99;43.26
52653;BME280;39353;42.864;12.014;2024-01-30T10:07:35;99297.80;;;18.98;43.30
52653;BME280;39353;42.864;12.014;2024-01-30T10:10:08;99298.92;;;18.98;43.36
52653;BME280;39353;42.864;12.014;2024-01-30T10:12:41;99301.30;;;18.98;43.39
52653;BME280;39353;42.864;12.014;2024-01-30T10:15:14;99300.15;;;18.97;43.48
52653;BME280;39353;42.864;12.014;2024-01-30T10:17:46;99299.50;;;18.96;43.49
52653;BME280;39353;42.864;12.014;2024-01-30T10:20:17;99294.34;;;18.95;43.41
52653;BME280;39353;42.864;12.014;2024-01-30T10:22:50;99293.60;;;18.95;43.57
52653;BME280;39353;42.864;12.014;2024-01-30T10:25:22;99288.90;;;18.95;43.49
52653;BME280;39353;42.864;12.014;2024-01-30T10:27:55;99286.87;;;18.96;43.60
52653;BME280;39353;42.864;12.014;2024-01-30T10:30:28;99282.98;;;18.95;43.68
52653;BME280;39353;42.864;12.014;2024-01-30T10:33:00;99282.34;;;18.94;43.74
52653;BME280;39353;42.864;12.014;2024-01-30T10:35:32;99282.27;;;18.94;43.69
52653;BME280;39353;42.864;12.014;2024-01-30T10:38:05;99279.72;;;18.94;43.64
52653;BME280;39353;42.864;12.014;2024-01-30T10:40:40;99276.94;;;18.93;43.74
52653;BME280;39353;42.864;12.014;2024-01-30T10:43:17;99275.16;;;18.93;43.71
52653;BME280;39353;42.864;12.014;2024-01-30T10:45:55;99273.92;;;18.93;43.70
52653;BME280;39353;42.864;12.014;2024-01-30T10:48:31;99271.09;;;18.92;43.54
52653;BME280;39353;42.864;12.014;2024-01-30T10:51:07;99267.52;;;18.92;43.79
52653;BME280;39353;42.864;12.014;2024-01-30T10:53:40;99265.11;;;18.92;43.83
52653;BME280;39353;42.864;12.014;2024-01-30T10:56:13;99265.75;;;18.91;43.79
52653;BME280;39353;42.864;12.014;2024-01-30T10:58:45;99266.84;;;18.91;43.84
52653;BME280;39353;42.864;12.014;2024-01-30T11:01:18;99261.54;;;18.90;43.88
52653;BME280;39353;42.864;12.014;2024-01-30T11:03:53;99258.06;;;18.88;43.95
52653;BME280;39353;42.864;12.014;2024-01-30T11:06:27;99256.64;;;18.88;43.80
52653;BME280;39353;42.864;12.014;2024-01-30T11:09:09;99254.94;;;18.87;43.75
52653;BME280;39353;42.864;12.014;2024-01-30T11:11:56;99250.97;;;18.87;43.76
52653;BME280;39353;42.864;12.014;2024-01-30T11:14:31;99250.99;;;18.87;43.87
52653;BME280;39353;42.864;12.014;2024-01-30T11:17:05;99249.80;;;18.86;43.91
52653;BME280;39353;42.864;12.014;2024-01-30T11:19:36;99243.95;;;18.85;43.95
52653;BME280;39353;42.864;12.014;2024-01-30T11:22:10;99242.05;;;18.84;43.73
52653;BME280;39353;42.864;12.014;2024-01-30T11:24:42;99236.70;;;18.83;43.70
52653;BME280;39353;42.864;12.014;2024-01-30T11:27:14;99233.28;;;18.83;43.66
52653;BME280;39353;42.864;12.014;2024-01-30T11:29:51;99231.95;;;18.83;43.95
52653;BME280;39353;42.864;12.014;2024-01-30T11:32:25;99226.45;;;18.82;43.71
52653;BME280;39353;42.864;12.014;2024-01-30T11:34:58;99221.35;;;18.81;42.88
52653;BME280;39353;42.864;12.014;2024-01-30T11:37:30;99213.44;;;18.61;36.13
52653;BME280;39353;42.864;12.014;2024-01-30T11:40:04;99207.87;;;18.32;34.13
52653;BME280;39353;42.864;12.014;2024-01-30T11:42:38;99210.48;;;18.28;37.02
52653;BME280;39353;42.864;12.014;2024-01-30T11:45:11;99206.59;;;18.35;38.46
52653;BME280;39353;42.864;12.014;2024-01-30T11:47:43;99200.59;;;18.40;38.69
52653;BME280;39353;42.864;12.014;2024-01-30T11:50:17;99200.27;;;18.43;38.71
52653;BME280;39353;42.864;12.014;2024-01-30T11:52:49;99194.57;;;18.44;39.35
52653;BME280;39353;42.864;12.014;2024-01-30T11:55:25;99194.63;;;18.47;39.87
52653;BME280;39353;42.864;12.014;2024-01-30T11:57:58;99192.63;;;18.49;39.91
52653;BME280;39353;42.864;12.014;2024-01-30T12:00:30;99188.66;;;18.52;40.00
52653;BME280;39353;42.864;12.014;2024-01-30T12:03:03;99190.88;;;18.56;40.63
52653;BME280;39353;42.864;12.014;2024-01-30T12:05:37;99189.64;;;18.61;41.03
52653;BME280;39353;42.864;12.014;2024-01-30T12:08:17;99186.62;;;18.67;41.63
52653;BME280;39353;42.864;12.014;2024-01-30T12:10:56;99184.64;;;18.72;42.21
52653;BME280;39353;42.864;12.014;2024-01-30T12:13:29;99183.11;;;18.76;42.73
52653;BME280;39353;42.864;12.014;2024-01-30T12:16:04;99184.40;;;18.79;43.16
52653;BME280;39353;42.864;12.014;2024-01-30T12:18:36;99181.61;;;18.81;43.61
52653;BME280;39353;42.864;12.014;2024-01-30T12:21:08;99181.48;;;18.81;43.66
52653;BME280;39353;42.864;12.014;2024-01-30T12:23:39;99178.39;;;18.79;43.90
52653;BME280;39353;42.864;12.014;2024-01-30T12:26:11;99174.92;;;18.78;44.24
52653;BME280;39353;42.864;12.014;2024-01-30T12:28:50;99172.58;;;18.78;43.94
52653;BME280;39353;42.864;12.014;2024-01-30T12:31:26;99166.73;;;18.77;44.27
52653;BME280;39353;42.864;12.014;2024-01-30T12:34:00;99166.87;;;18.76;44.27
52653;BME280;39353;42.864;12.014;2024-01-30T12:36:32;99164.42;;;18.74;44.24
52653;BME280;39353;42.864;12.014;2024-01-30T12:39:06;99158.55;;;18.73;44.07
52653;BME280;39353;42.864;12.014;2024-01-30T12:41:40;99158.02;;;18.73;43.86
52653;BME280;39353;42.864;12.014;2024-01-30T12:44:15;99156.84;;;18.72;44.04
52653;BME280;39353;42.864;12.014;2024-01-30T12:46:48;99153.89;;;18.73;44.12
52653;BME280;39353;42.864;12.014;2024-01-30T12:49:20;99148.80;;;18.71;44.01
52653;BME280;39353;42.864;12.014;2024-01-30T12:51:51;99147.60;;;18.71;44.07
52653;BME280;39353;42.864;12.014;2024-01-30T12:54:24;99144.98;;;18.70;43.66
52653;BME280;39353;42.864;12.014;2024-01-30T12:56:55;99145.48;;;18.70;43.48
52653;BME280;39353;42.864;12.014;2024-01-30T12:59:28;99144.30;;;18.70;43.13
52653;BME280;39353;42.864;12.014;2024-01-30T13:02:03;99139.40;;;18.68;42.60
52653;BME280;39353;42.864;12.014;2024-01-30T13:04:34;99136.73;;;18.66;42.22
52653;BME280;39353;42.864;12.014;2024-01-30T13:07:06;99133.28;;;18.65;41.46
52653;BME280;39353;42.864;12.014;2024-01-30T13:09:38;99130.29;;;18.64;41.54
52653;BME280;39353;42.864;12.014;2024-01-30T13:12:09;99125.09;;;18.63;41.83
52653;BME280;39353;42.864;12.014;2024-01-30T13:14:41;99127.30;;;18.65;42.13
52653;BME280;39353;42.864;12.014;2024-01-30T13:17:13;99125.34;;;18.67;42.34